Nord 4841'20'' Est 207'19'' alt. 163 m
Donnes mto: Actuelle mercredi, 18/09/2019 18:25
Date Horaire Temp. Soleil Temp. Ext. Dif. Solaire Hum. Ext. P.atmo. Pluie Vent Direction Direction Ensoleill P. de rose
18/09/2019 18:25 31,4 C 17,3 C 14,1 C 43 % 1021,2 mbar 0,0 mm 9,0 km/h E-NE 67 60 min 4,6 C
18/09/2019 17:25 35,2 C 17,8 C 17,4 C 41 % 1021,2 mbar 0,0 mm 8,3 km/h N-NE 22 60 min 4,4 C
18/09/2019 16:25 36,7 C 17,8 C 18,9 C 42 % 1021,6 mbar 0,0 mm 4,7 km/h E-NE 67 60 min 4,7 C
18/09/2019 15:25 37,4 C 17,8 C 19,6 C 42 % 1021,8 mbar 0,0 mm 15,8 km/h E-NE 67 60 min 4,7 C
18/09/2019 14:25 38,2 C 18,8 C 19,4 C 40 % 1022,1 mbar 0,0 mm 11,5 km/h NE 45 60 min 4,9 C
18/09/2019 13:25 36,8 C 17,6 C 19,2 C 45 % 1022,1 mbar 0,0 mm 11,2 km/h E-NE 67 60 min 5,5 C
18/09/2019 12:25 35,2 C 16,4 C 18,8 C 44 % 1022,4 mbar 0,0 mm 26,6 km/h NE 45 60 min 4,1 C
18/09/2019 11:25 30,7 C 14,9 C 15,8 C 49 % 1022,3 mbar 0,0 mm 8,3 km/h E-NE 67 60 min 4,3 C
18/09/2019 10:25 30,7 C 13,8 C 16,9 C 56 % 1022,4 mbar 0,0 mm 20,2 km/h NE 45 55 min 5,2 C
18/09/2019 09:25 17,0 C 11,0 C 6,0 C 66 % 1021,8 mbar 0,0 mm 14,0 km/h N-NE 22 40 min 4,9 C
18/09/2019 08:25 18,4 C 10,9 C 7,5 C 70 % 1021,1 mbar 0,0 mm 9,4 km/h E-NE 67 35 min 5,6 C
18/09/2019 07:25 9,4 C 9,8 C 0,0 C 73 % 1020,5 mbar 0,0 mm 10,8 km/h E-NE 67 0 min 5,2 C
18/09/2019 06:25 9,7 C 10,2 C 0,0 C 72 % 1020,4 mbar 0,0 mm 7,2 km/h NE 45 0 min 5,4 C
18/09/2019 05:25 10,1 C 10,6 C 0,0 C 71 % 1020,6 mbar 0,0 mm 8,3 km/h E-NE 67 0 min 5,6 C
18/09/2019 04:25 10,5 C 11,0 C 0,0 C 69 % 1020,6 mbar 0,0 mm 4,0 km/h NE 45 0 min 5,5 C
18/09/2019 03:25 11,4 C 11,8 C 0,0 C 71 % 1020,5 mbar 0,0 mm 4,0 km/h E-SE 112 0 min 6,7 C
18/09/2019 02:25 11,7 C 12,2 C 0,0 C 70 % 1020,5 mbar 0,0 mm 7,2 km/h NE 45 0 min 6,9 C
18/09/2019 01:25 12,2 C 12,8 C 0,0 C 71 % 1020,4 mbar 0,0 mm 4,3 km/h N-NE 22 0 min 7,7 C
18/09/2019 00:25 13,4 C 13,8 C 0,0 C 67 % 1020,4 mbar 0,0 mm 20,9 km/h NE 45 0 min 7,8 C
17/09/2019 23:25 14,2 C 14,6 C 0,0 C 66 % 1020,0 mbar 0,0 mm 1,1 km/h N-NE 22 0 min 8,3 C
17/09/2019 22:25 15,6 C 15,9 C 0,0 C 63 % 1019,5 mbar 0,0 mm 21,6 km/h N 360 0 min 8,9 C
17/09/2019 21:25 16,2 C 16,5 C 0,0 C 61 % 1018,9 mbar 0,0 mm 3,6 km/h E-NE 67 0 min 9,0 C
17/09/2019 20:25 17,2 C 17,6 C 0,0 C 56 % 1018,6 mbar 0,0 mm 4,0 km/h NO 315 25 min 8,7 C
17/09/2019 19:25 26,2 C 18,9 C 7,3 C 54 % 1018,2 mbar 0,0 mm 2,9 km/h NE 45 25 min 9,4 C
17/09/2019 19:00 30,4 C 19,6 C 10,8 C 52 % 1018,3 mbar 0,0 mm 10,8 km/h N-NE 22 0 min 9,5 C
_ Min-Heure 07:25 07:20 20:10 16:50 19:25 - 21:55 - - - 16:50
Minimum _ 9,4 C 9,8 C 0,0 C 39 % 1018,2 mbar - 0,0 km/h - - - 3,7 C
_ Max-Heure 15:10 19:00 14:30 07:20 11:00 19:00 15:50 - - 19:05 19:20
Maximum _ 38,5 C 19,6 C 20,5 C 73 % 1022,8 mbar 0,0 mm 33,8 km/h
NO
- - 5 min 9,5 C
Moyenne _ 22,6 C 14,9 C 7,9 C 58 % 1020,6 mbar #0,0 mm 10,1 km/h E-NE - #10:10 h 6,4 C